Saint-Jerome, Canada
Current Conditions -  °F | °C
As of 3:00 AM on Thursday 23 Oct 2014 (Local Time) from CYMX Reporting Station
Broken Clouds Broken Clouds  
Wind Chill:   Ceiling: 8000
Heat Index:   Visibility: 25mi
Dew Point:   Wind: 9mph
Humidity: 57%   Direction: 40°NE
Pressure: 30.16"   Gusts: 23mph
Location:  45.77°N, 74°W
Report Text: CYMX 230700Z 04008G20KT 350V090 25SM BKN080 08/00 A3016 RMK AC6 SLP215
Loading
Personal Weather Stations






























Interactive Weather Map
Tropical Storm Tracking
New forecast layout! Learn more

10-Day Weather Forecast

Advertisements
Track Severe Weather on mobile